sensor_id;sensor_type;location;lat;lon;timestamp;P1;durP1;ratioP1;P2;durP2;ratioP2
44925;SDS011;30662;51.210;7.656;2023-02-01T00:01:59;35.83;;;21.60;;
44925;SDS011;30662;51.210;7.656;2023-02-01T00:04:26;34.60;;;19.08;;
44925;SDS011;30662;51.210;7.656;2023-02-01T00:06:52;34.30;;;19.55;;
44925;SDS011;30662;51.210;7.656;2023-02-01T00:09:17;34.72;;;19.58;;
44925;SDS011;30662;51.210;7.656;2023-02-01T00:11:43;40.53;;;20.80;;
44925;SDS011;30662;51.210;7.656;2023-02-01T00:14:10;42.20;;;18.85;;
44925;SDS011;30662;51.210;7.656;2023-02-01T00:16:36;37.10;;;18.35;;
44925;SDS011;30662;51.210;7.656;2023-02-01T00:19:04;34.25;;;18.00;;
44925;SDS011;30662;51.210;7.656;2023-02-01T00:21:31;29.02;;;16.25;;
44925;SDS011;30662;51.210;7.656;2023-02-01T00:23:58;28.60;;;14.82;;
44925;SDS011;30662;51.210;7.656;2023-02-01T00:28:56;20.52;;;12.02;;
44925;SDS011;30662;51.210;7.656;2023-02-01T00:31:22;32.17;;;12.48;;
44925;SDS011;30662;51.210;7.656;2023-02-01T00:33:49;20.25;;;10.55;;
44925;SDS011;30662;51.210;7.656;2023-02-01T00:36:15;24.30;;;9.60;;
44925;SDS011;30662;51.210;7.656;2023-02-01T00:38:41;26.00;;;10.50;;
44925;SDS011;30662;51.210;7.656;2023-02-01T00:41:09;25.80;;;9.30;;
44925;SDS011;30662;51.210;7.656;2023-02-01T00:43:37;26.85;;;9.70;;
44925;SDS011;30662;51.210;7.656;2023-02-01T00:46:03;19.85;;;9.10;;
44925;SDS011;30662;51.210;7.656;2023-02-01T00:48:30;23.88;;;8.38;;
44925;SDS011;30662;51.210;7.656;2023-02-01T00:51:00;20.88;;;7.70;;
44925;SDS011;30662;51.210;7.656;2023-02-01T00:53:27;18.70;;;8.32;;
44925;SDS011;30662;51.210;7.656;2023-02-01T00:55:53;18.10;;;8.68;;
44925;SDS011;30662;51.210;7.656;2023-02-01T00:58:19;28.88;;;9.00;;
44925;SDS011;30662;51.210;7.656;2023-02-01T01:00:45;18.30;;;7.88;;
44925;SDS011;30662;51.210;7.656;2023-02-01T01:03:12;21.35;;;7.30;;
44925;SDS011;30662;51.210;7.656;2023-02-01T01:05:44;21.83;;;7.30;;
44925;SDS011;30662;51.210;7.656;2023-02-01T01:08:11;24.02;;;7.40;;
44925;SDS011;30662;51.210;7.656;2023-02-01T01:10:37;25.10;;;7.95;;
44925;SDS011;30662;51.210;7.656;2023-02-01T01:13:03;25.00;;;8.43;;
44925;SDS011;30662;51.210;7.656;2023-02-01T01:15:29;21.05;;;8.93;;
44925;SDS011;30662;51.210;7.656;2023-02-01T01:17:55;25.00;;;7.78;;
44925;SDS011;30662;51.210;7.656;2023-02-01T01:20:22;23.77;;;9.00;;
44925;SDS011;30662;51.210;7.656;2023-02-01T01:22:48;24.67;;;9.20;;
44925;SDS011;30662;51.210;7.656;2023-02-01T01:25:14;23.08;;;10.18;;
44925;SDS011;30662;51.210;7.656;2023-02-01T01:27:40;19.13;;;8.68;;
44925;SDS011;30662;51.210;7.656;2023-02-01T01:30:07;25.20;;;9.98;;
44925;SDS011;30662;51.210;7.656;2023-02-01T01:32:33;23.67;;;10.13;;
44925;SDS011;30662;51.210;7.656;2023-02-01T01:34:59;22.83;;;11.88;;
44925;SDS011;30662;51.210;7.656;2023-02-01T01:37:25;30.85;;;10.32;;
44925;SDS011;30662;51.210;7.656;2023-02-01T01:39:51;29.25;;;11.30;;
44925;SDS011;30662;51.210;7.656;2023-02-01T01:42:17;28.80;;;10.77;;
44925;SDS011;30662;51.210;7.656;2023-02-01T01:44:59;27.95;;;11.77;;
44925;SDS011;30662;51.210;7.656;2023-02-01T01:47:32;24.63;;;12.68;;
44925;SDS011;30662;51.210;7.656;2023-02-01T01:50:02;34.60;;;12.30;;
44925;SDS011;30662;51.210;7.656;2023-02-01T01:52:29;30.38;;;13.95;;
44925;SDS011;30662;51.210;7.656;2023-02-01T01:54:55;26.52;;;13.45;;
44925;SDS011;30662;51.210;7.656;2023-02-01T01:57:25;27.75;;;14.35;;
44925;SDS011;30662;51.210;7.656;2023-02-01T02:00:13;29.52;;;14.25;;
44925;SDS011;30662;51.210;7.656;2023-02-01T02:02:43;26.92;;;13.55;;
44925;SDS011;30662;51.210;7.656;2023-02-01T02:05:12;24.67;;;12.55;;
44925;SDS011;30662;51.210;7.656;2023-02-01T02:07:40;30.17;;;12.52;;
44925;SDS011;30662;51.210;7.656;2023-02-01T02:10:11;23.15;;;11.27;;
44925;SDS011;30662;51.210;7.656;2023-02-01T02:12:39;28.55;;;12.43;;
44925;SDS011;30662;51.210;7.656;2023-02-01T02:15:10;24.73;;;10.50;;
44925;SDS011;30662;51.210;7.656;2023-02-01T02:29:04;21.75;;;7.25;;
44925;SDS011;30662;51.210;7.656;2023-02-01T02:43:05;19.05;;;6.45;;
44925;SDS011;30662;51.210;7.656;2023-02-01T02:46:04;20.75;;;7.28;;
44925;SDS011;30662;51.210;7.656;2023-02-01T02:49:09;25.35;;;6.38;;
44925;SDS011;30662;51.210;7.656;2023-02-01T02:51:45;17.67;;;5.57;;
44925;SDS011;30662;51.210;7.656;2023-02-01T02:54:36;21.35;;;5.80;;
44925;SDS011;30662;51.210;7.656;2023-02-01T02:57:13;20.23;;;5.55;;
44925;SDS011;30662;51.210;7.656;2023-02-01T03:03:04;22.02;;;6.22;;
44925;SDS011;30662;51.210;7.656;2023-02-01T03:05:49;16.25;;;4.25;;
44925;SDS011;30662;51.210;7.656;2023-02-01T03:08:17;24.25;;;5.57;;
44925;SDS011;30662;51.210;7.656;2023-02-01T03:10:50;19.40;;;5.10;;
44925;SDS011;30662;51.210;7.656;2023-02-01T03:21:18;24.23;;;5.80;;
44925;SDS011;30662;51.210;7.656;2023-02-01T03:23:49;23.52;;;6.43;;
44925;SDS011;30662;51.210;7.656;2023-02-01T03:26:17;24.17;;;5.25;;
44925;SDS011;30662;51.210;7.656;2023-02-01T03:28:49;13.98;;;3.75;;
44925;SDS011;30662;51.210;7.656;2023-02-01T03:31:21;18.92;;;4.35;;
44925;SDS011;30662;51.210;7.656;2023-02-01T03:33:48;18.50;;;4.63;;
44925;SDS011;30662;51.210;7.656;2023-02-01T03:39:07;22.67;;;4.68;;
44925;SDS011;30662;51.210;7.656;2023-02-01T03:41:42;18.90;;;4.72;;
44925;SDS011;30662;51.210;7.656;2023-02-01T03:44:23;27.42;;;7.15;;
44925;SDS011;30662;51.210;7.656;2023-02-01T03:46:54;16.10;;;3.85;;
44925;SDS011;30662;51.210;7.656;2023-02-01T03:49:25;19.17;;;4.32;;
44925;SDS011;30662;51.210;7.656;2023-02-01T03:51:54;26.25;;;6.43;;
44925;SDS011;30662;51.210;7.656;2023-02-01T03:54:23;21.17;;;4.38;;
44925;SDS011;30662;51.210;7.656;2023-02-01T03:56:50;19.92;;;4.13;;
44925;SDS011;30662;51.210;7.656;2023-02-01T03:59:19;19.48;;;5.63;;
44925;SDS011;30662;51.210;7.656;2023-02-01T04:01:45;18.00;;;3.67;;
44925;SDS011;30662;51.210;7.656;2023-02-01T04:04:11;23.35;;;5.28;;
44925;SDS011;30662;51.210;7.656;2023-02-01T04:06:48;13.77;;;4.32;;
44925;SDS011;30662;51.210;7.656;2023-02-01T04:09:15;16.67;;;4.10;;
44925;SDS011;30662;51.210;7.656;2023-02-01T04:11:42;17.17;;;3.85;;
44925;SDS011;30662;51.210;7.656;2023-02-01T04:14:08;19.42;;;4.22;;
44925;SDS011;30662;51.210;7.656;2023-02-01T04:16:35;18.60;;;4.75;;
44925;SDS011;30662;51.210;7.656;2023-02-01T04:19:01;15.35;;;3.75;;
44925;SDS011;30662;51.210;7.656;2023-02-01T04:21:27;20.90;;;4.32;;
44925;SDS011;30662;51.210;7.656;2023-02-01T04:23:53;23.02;;;4.95;;
44925;SDS011;30662;51.210;7.656;2023-02-01T04:26:20;23.75;;;5.35;;
44925;SDS011;30662;51.210;7.656;2023-02-01T04:28:46;14.00;;;4.88;;
44925;SDS011;30662;51.210;7.656;2023-02-01T04:31:13;21.63;;;7.43;;
44925;SDS011;30662;51.210;7.656;2023-02-01T04:33:40;16.58;;;4.75;;
44925;SDS011;30662;51.210;7.656;2023-02-01T04:36:06;21.83;;;4.88;;
44925;SDS011;30662;51.210;7.656;2023-02-01T04:38:32;21.58;;;5.72;;
44925;SDS011;30662;51.210;7.656;2023-02-01T04:40:58;16.83;;;4.60;;
44925;SDS011;30662;51.210;7.656;2023-02-01T04:43:24;24.05;;;4.50;;
44925;SDS011;30662;51.210;7.656;2023-02-01T04:45:51;20.58;;;5.78;;
44925;SDS011;30662;51.210;7.656;2023-02-01T04:48:18;23.05;;;5.47;;
44925;SDS011;30662;51.210;7.656;2023-02-01T04:50:46;17.65;;;4.40;;
44925;SDS011;30662;51.210;7.656;2023-02-01T04:53:14;16.83;;;4.28;;
44925;SDS011;30662;51.210;7.656;2023-02-01T04:55:41;28.13;;;5.05;;
44925;SDS011;30662;51.210;7.656;2023-02-01T04:58:07;20.48;;;4.68;;
44925;SDS011;30662;51.210;7.656;2023-02-01T05:00:33;18.10;;;4.60;;
44925;SDS011;30662;51.210;7.656;2023-02-01T05:03:00;19.15;;;4.95;;
44925;SDS011;30662;51.210;7.656;2023-02-01T05:05:26;20.42;;;5.53;;
44925;SDS011;30662;51.210;7.656;2023-02-01T05:07:53;20.90;;;4.90;;
44925;SDS011;30662;51.210;7.656;2023-02-01T05:10:20;21.75;;;6.00;;
44925;SDS011;30662;51.210;7.656;2023-02-01T05:12:46;22.48;;;5.07;;
44925;SDS011;30662;51.210;7.656;2023-02-01T05:15:31;21.55;;;5.07;;
44925;SDS011;30662;51.210;7.656;2023-02-01T05:17:58;24.58;;;6.10;;
44925;SDS011;30662;51.210;7.656;2023-02-01T05:20:24;21.55;;;5.22;;
44925;SDS011;30662;51.210;7.656;2023-02-01T05:22:50;24.27;;;4.90;;
44925;SDS011;30662;51.210;7.656;2023-02-01T05:25:16;22.42;;;5.32;;
44925;SDS011;30662;51.210;7.656;2023-02-01T05:27:42;24.50;;;5.30;;
44925;SDS011;30662;51.210;7.656;2023-02-01T05:30:08;28.88;;;5.97;;
44925;SDS011;30662;51.210;7.656;2023-02-01T05:32:35;28.33;;;6.47;;
44925;SDS011;30662;51.210;7.656;2023-02-01T05:35:01;21.15;;;5.30;;
44925;SDS011;30662;51.210;7.656;2023-02-01T05:37:27;27.70;;;5.80;;
44925;SDS011;30662;51.210;7.656;2023-02-01T05:39:53;24.73;;;6.15;;
44925;SDS011;30662;51.210;7.656;2023-02-01T05:42:19;25.67;;;5.95;;
44925;SDS011;30662;51.210;7.656;2023-02-01T05:44:45;22.85;;;5.93;;
44925;SDS011;30662;51.210;7.656;2023-02-01T05:47:11;21.48;;;6.20;;
44925;SDS011;30662;51.210;7.656;2023-02-01T05:49:37;27.08;;;5.95;;
44925;SDS011;30662;51.210;7.656;2023-02-01T05:52:04;21.52;;;6.38;;
44925;SDS011;30662;51.210;7.656;2023-02-01T05:54:30;23.88;;;6.32;;
44925;SDS011;30662;51.210;7.656;2023-02-01T05:56:56;20.13;;;6.55;;
44925;SDS011;30662;51.210;7.656;2023-02-01T05:59:22;28.05;;;6.65;;
44925;SDS011;30662;51.210;7.656;2023-02-01T06:01:48;25.25;;;7.72;;
44925;SDS011;30662;51.210;7.656;2023-02-01T06:04:13;25.35;;;6.38;;
44925;SDS011;30662;51.210;7.656;2023-02-01T06:06:39;25.33;;;6.60;;
44925;SDS011;30662;51.210;7.656;2023-02-01T06:09:05;21.13;;;6.32;;
44925;SDS011;30662;51.210;7.656;2023-02-01T06:11:31;22.60;;;6.22;;
44925;SDS011;30662;51.210;7.656;2023-02-01T06:13:58;25.65;;;7.07;;
44925;SDS011;30662;51.210;7.656;2023-02-01T06:16:25;20.58;;;6.10;;
44925;SDS011;30662;51.210;7.656;2023-02-01T06:18:51;27.77;;;6.88;;
44925;SDS011;30662;51.210;7.656;2023-02-01T06:21:17;19.95;;;6.43;;
44925;SDS011;30662;51.210;7.656;2023-02-01T06:23:52;28.08;;;7.15;;
44925;SDS011;30662;51.210;7.656;2023-02-01T06:26:19;28.33;;;5.97;;
44925;SDS011;30662;51.210;7.656;2023-02-01T06:28:45;16.88;;;6.03;;
44925;SDS011;30662;51.210;7.656;2023-02-01T06:31:11;22.38;;;5.97;;
44925;SDS011;30662;51.210;7.656;2023-02-01T06:33:38;22.25;;;6.28;;
44925;SDS011;30662;51.210;7.656;2023-02-01T06:36:05;21.40;;;5.63;;
44925;SDS011;30662;51.210;7.656;2023-02-01T06:38:32;24.20;;;6.15;;
44925;SDS011;30662;51.210;7.656;2023-02-01T06:41:02;21.10;;;6.18;;
44925;SDS011;30662;51.210;7.656;2023-02-01T06:43:29;22.38;;;6.38;;
44925;SDS011;30662;51.210;7.656;2023-02-01T06:45:59;18.92;;;6.50;;
44925;SDS011;30662;51.210;7.656;2023-02-01T06:48:30;28.92;;;8.15;;
44925;SDS011;30662;51.210;7.656;2023-02-01T06:50:56;27.45;;;6.00;;
44925;SDS011;30662;51.210;7.656;2023-02-01T06:53:22;19.13;;;7.40;;
44925;SDS011;30662;51.210;7.656;2023-02-01T06:56:06;20.38;;;6.20;;
44925;SDS011;30662;51.210;7.656;2023-02-01T06:58:34;24.23;;;7.72;;
44925;SDS011;30662;51.210;7.656;2023-02-01T07:01:07;24.05;;;6.05;;
44925;SDS011;30662;51.210;7.656;2023-02-01T07:03:34;19.35;;;6.30;;
44925;SDS011;30662;51.210;7.656;2023-02-01T07:06:01;25.25;;;7.05;;
44925;SDS011;30662;51.210;7.656;2023-02-01T07:08:27;22.90;;;6.28;;
44925;SDS011;30662;51.210;7.656;2023-02-01T07:10:54;20.60;;;7.32;;
44925;SDS011;30662;51.210;7.656;2023-02-01T07:13:20;29.85;;;6.65;;
44925;SDS011;30662;51.210;7.656;2023-02-01T07:15:45;26.88;;;7.28;;
44925;SDS011;30662;51.210;7.656;2023-02-01T07:18:14;23.73;;;6.53;;
44925;SDS011;30662;51.210;7.656;2023-02-01T07:20:41;20.05;;;6.43;;
44925;SDS011;30662;51.210;7.656;2023-02-01T07:23:10;26.70;;;7.30;;
44925;SDS011;30662;51.210;7.656;2023-02-01T07:25:36;23.35;;;6.65;;
44925;SDS011;30662;51.210;7.656;2023-02-01T07:28:02;20.38;;;5.57;;
44925;SDS011;30662;51.210;7.656;2023-02-01T07:30:28;25.63;;;6.32;;
44925;SDS011;30662;51.210;7.656;2023-02-01T07:32:54;25.42;;;6.65;;
44925;SDS011;30662;51.210;7.656;2023-02-01T07:35:20;24.27;;;6.72;;
44925;SDS011;30662;51.210;7.656;2023-02-01T07:37:46;21.52;;;6.35;;
44925;SDS011;30662;51.210;7.656;2023-02-01T07:40:11;20.00;;;6.07;;
44925;SDS011;30662;51.210;7.656;2023-02-01T07:42:37;25.98;;;6.93;;
44925;SDS011;30662;51.210;7.656;2023-02-01T07:45:03;26.30;;;6.68;;
44925;SDS011;30662;51.210;7.656;2023-02-01T07:47:46;25.98;;;6.07;;
44925;SDS011;30662;51.210;7.656;2023-02-01T07:50:12;27.75;;;6.45;;
44925;SDS011;30662;51.210;7.656;2023-02-01T07:52:38;21.45;;;6.03;;
44925;SDS011;30662;51.210;7.656;2023-02-01T07:55:05;24.27;;;6.82;;
44925;SDS011;30662;51.210;7.656;2023-02-01T07:57:32;29.98;;;7.40;;
44925;SDS011;30662;51.210;7.656;2023-02-01T07:59:58;23.55;;;6.43;;
44925;SDS011;30662;51.210;7.656;2023-02-01T08:02:42;19.77;;;6.13;;
44925;SDS011;30662;51.210;7.656;2023-02-01T08:05:08;26.20;;;5.00;;
44925;SDS011;30662;51.210;7.656;2023-02-01T08:07:34;24.45;;;5.72;;
44925;SDS011;30662;51.210;7.656;2023-02-01T08:10:00;20.45;;;5.63;;
44925;SDS011;30662;51.210;7.656;2023-02-01T08:12:26;23.45;;;5.85;;
44925;SDS011;30662;51.210;7.656;2023-02-01T08:14:52;21.85;;;5.32;;
44925;SDS011;30662;51.210;7.656;2023-02-01T08:17:19;27.08;;;7.05;;
44925;SDS011;30662;51.210;7.656;2023-02-01T08:19:45;26.55;;;6.05;;
44925;SDS011;30662;51.210;7.656;2023-02-01T08:22:11;22.65;;;6.03;;
44925;SDS011;30662;51.210;7.656;2023-02-01T08:24:37;20.00;;;6.28;;
44925;SDS011;30662;51.210;7.656;2023-02-01T08:27:07;20.90;;;6.75;;
44925;SDS011;30662;51.210;7.656;2023-02-01T08:29:33;19.85;;;5.95;;
44925;SDS011;30662;51.210;7.656;2023-02-01T08:31:59;24.27;;;7.18;;
44925;SDS011;30662;51.210;7.656;2023-02-01T08:34:24;19.77;;;7.40;;
44925;SDS011;30662;51.210;7.656;2023-02-01T08:36:52;24.55;;;6.47;;
44925;SDS011;30662;51.210;7.656;2023-02-01T08:39:22;27.02;;;6.78;;
44925;SDS011;30662;51.210;7.656;2023-02-01T08:41:48;30.33;;;7.75;;
44925;SDS011;30662;51.210;7.656;2023-02-01T08:44:34;24.73;;;6.70;;
44925;SDS011;30662;51.210;7.656;2023-02-01T08:47:01;25.15;;;7.53;;
44925;SDS011;30662;51.210;7.656;2023-02-01T08:49:27;23.42;;;7.90;;
44925;SDS011;30662;51.210;7.656;2023-02-01T08:51:52;24.35;;;6.80;;
44925;SDS011;30662;51.210;7.656;2023-02-01T08:54:23;29.67;;;7.90;;
44925;SDS011;30662;51.210;7.656;2023-02-01T08:56:49;23.65;;;5.75;;
44925;SDS011;30662;51.210;7.656;2023-02-01T08:59:15;22.05;;;6.22;;
44925;SDS011;30662;51.210;7.656;2023-02-01T09:01:41;32.17;;;8.02;;
44925;SDS011;30662;51.210;7.656;2023-02-01T09:04:08;19.98;;;7.15;;
44925;SDS011;30662;51.210;7.656;2023-02-01T09:06:34;25.10;;;7.60;;
44925;SDS011;30662;51.210;7.656;2023-02-01T09:09:00;27.25;;;6.90;;
44925;SDS011;30662;51.210;7.656;2023-02-01T09:11:26;19.73;;;5.93;;
44925;SDS011;30662;51.210;7.656;2023-02-01T09:13:52;21.25;;;6.15;;
44925;SDS011;30662;51.210;7.656;2023-02-01T09:16:18;25.17;;;7.05;;
44925;SDS011;30662;51.210;7.656;2023-02-01T09:18:44;19.30;;;7.18;;
44925;SDS011;30662;51.210;7.656;2023-02-01T09:21:27;24.95;;;6.75;;
44925;SDS011;30662;51.210;7.656;2023-02-01T09:23:53;25.80;;;6.55;;
44925;SDS011;30662;51.210;7.656;2023-02-01T09:26:19;21.63;;;5.70;;
44925;SDS011;30662;51.210;7.656;2023-02-01T09:28:56;22.65;;;6.55;;
44925;SDS011;30662;51.210;7.656;2023-02-01T09:31:22;27.35;;;7.07;;
44925;SDS011;30662;51.210;7.656;2023-02-01T09:33:48;22.38;;;6.22;;
44925;SDS011;30662;51.210;7.656;2023-02-01T09:36:14;24.38;;;6.20;;
44925;SDS011;30662;51.210;7.656;2023-02-01T09:38:40;23.85;;;6.15;;
44925;SDS011;30662;51.210;7.656;2023-02-01T09:41:23;21.30;;;6.50;;
44925;SDS011;30662;51.210;7.656;2023-02-01T09:44:21;20.10;;;6.18;;
44925;SDS011;30662;51.210;7.656;2023-02-01T09:47:12;21.38;;;6.18;;
44925;SDS011;30662;51.210;7.656;2023-02-01T09:52:16;25.23;;;6.65;;
44925;SDS011;30662;51.210;7.656;2023-02-01T09:54:55;27.13;;;6.93;;
44925;SDS011;30662;51.210;7.656;2023-02-01T09:57:31;24.23;;;6.45;;
44925;SDS011;30662;51.210;7.656;2023-02-01T10:00:37;20.83;;;6.05;;
44925;SDS011;30662;51.210;7.656;2023-02-01T10:03:04;18.05;;;5.68;;
44925;SDS011;30662;51.210;7.656;2023-02-01T10:05:46;28.08;;;7.75;;
44925;SDS011;30662;51.210;7.656;2023-02-01T10:19:49;20.33;;;7.28;;
44925;SDS011;30662;51.210;7.656;2023-02-01T10:22:39;19.35;;;6.70;;
44925;SDS011;30662;51.210;7.656;2023-02-01T10:28:16;26.70;;;7.53;;
44925;SDS011;30662;51.210;7.656;2023-02-01T10:30:44;24.92;;;7.75;;
44925;SDS011;30662;51.210;7.656;2023-02-01T10:33:17;28.92;;;7.93;;
44925;SDS011;30662;51.210;7.656;2023-02-01T10:35:50;22.75;;;7.90;;
44925;SDS011;30662;51.210;7.656;2023-02-01T10:38:24;32.25;;;8.27;;
44925;SDS011;30662;51.210;7.656;2023-02-01T10:40:53;30.38;;;7.70;;
44925;SDS011;30662;51.210;7.656;2023-02-01T10:43:24;19.60;;;6.88;;
44925;SDS011;30662;51.210;7.656;2023-02-01T10:45:50;31.83;;;8.25;;
44925;SDS011;30662;51.210;7.656;2023-02-01T10:48:17;26.38;;;7.22;;
44925;SDS011;30662;51.210;7.656;2023-02-01T10:50:48;19.02;;;7.22;;
44925;SDS011;30662;51.210;7.656;2023-02-01T10:53:29;25.83;;;7.40;;
44925;SDS011;30662;51.210;7.656;2023-02-01T10:55:57;30.33;;;8.23;;
44925;SDS011;30662;51.210;7.656;2023-02-01T10:58:31;24.88;;;7.28;;
44925;SDS011;30662;51.210;7.656;2023-02-01T11:01:05;25.95;;;8.40;;
44925;SDS011;30662;51.210;7.656;2023-02-01T11:03:44;26.35;;;6.95;;
44925;SDS011;30662;51.210;7.656;2023-02-01T11:06:19;29.15;;;8.40;;
44925;SDS011;30662;51.210;7.656;2023-02-01T11:08:51;24.35;;;7.47;;
44925;SDS011;30662;51.210;7.656;2023-02-01T11:11:22;24.92;;;7.03;;
44925;SDS011;30662;51.210;7.656;2023-02-01T11:13:58;23.50;;;7.05;;
44925;SDS011;30662;51.210;7.656;2023-02-01T11:16:32;20.10;;;6.75;;
44925;SDS011;30662;51.210;7.656;2023-02-01T11:19:03;21.67;;;6.18;;
44925;SDS011;30662;51.210;7.656;2023-02-01T11:21:29;24.23;;;6.63;;
44925;SDS011;30662;51.210;7.656;2023-02-01T11:23:55;22.67;;;6.80;;
44925;SDS011;30662;51.210;7.656;2023-02-01T11:26:27;22.10;;;6.53;;
44925;SDS011;30662;51.210;7.656;2023-02-01T11:29:01;21.65;;;6.13;;
44925;SDS011;30662;51.210;7.656;2023-02-01T11:31:29;21.52;;;6.75;;
44925;SDS011;30662;51.210;7.656;2023-02-01T11:33:58;22.88;;;6.47;;
44925;SDS011;30662;51.210;7.656;2023-02-01T11:36:31;20.30;;;6.95;;
44925;SDS011;30662;51.210;7.656;2023-02-01T11:41:41;28.75;;;7.43;;
44925;SDS011;30662;51.210;7.656;2023-02-01T11:47:16;19.08;;;6.82;;
44925;SDS011;30662;51.210;7.656;2023-02-01T11:49:57;24.35;;;8.15;;
44925;SDS011;30662;51.210;7.656;2023-02-01T11:55:37;29.65;;;6.82;;
44925;SDS011;30662;51.210;7.656;2023-02-01T11:58:15;23.60;;;7.05;;
44925;SDS011;30662;51.210;7.656;2023-02-01T12:06:55;20.70;;;6.43;;
44925;SDS011;30662;51.210;7.656;2023-02-01T12:26:33;28.02;;;7.88;;
44925;SDS011;30662;51.210;7.656;2023-02-01T12:31:45;22.77;;;5.78;;
44925;SDS011;30662;51.210;7.656;2023-02-01T12:36:56;22.08;;;7.10;;
44925;SDS011;30662;51.210;7.656;2023-02-01T12:39:47;29.30;;;7.15;;
44925;SDS011;30662;51.210;7.656;2023-02-01T12:42:20;21.50;;;7.25;;
44925;SDS011;30662;51.210;7.656;2023-02-01T12:44:50;18.92;;;7.18;;
44925;SDS011;30662;51.210;7.656;2023-02-01T12:47:27;16.38;;;6.22;;
44925;SDS011;30662;51.210;7.656;2023-02-01T12:50:02;27.73;;;7.18;;
44925;SDS011;30662;51.210;7.656;2023-02-01T12:55:24;20.88;;;6.72;;
44925;SDS011;30662;51.210;7.656;2023-02-01T12:58:20;27.52;;;7.43;;
44925;SDS011;30662;51.210;7.656;2023-02-01T13:01:03;23.00;;;6.95;;
44925;SDS011;30662;51.210;7.656;2023-02-01T13:03:42;24.08;;;6.50;;
44925;SDS011;30662;51.210;7.656;2023-02-01T13:06:23;21.70;;;6.50;;
44925;SDS011;30662;51.210;7.656;2023-02-01T13:11:45;27.08;;;6.75;;
44925;SDS011;30662;51.210;7.656;2023-02-01T13:14:23;32.53;;;7.97;;
44925;SDS011;30662;51.210;7.656;2023-02-01T13:17:15;21.95;;;6.47;;
44925;SDS011;30662;51.210;7.656;2023-02-01T13:20:32;25.27;;;6.57;;
44925;SDS011;30662;51.210;7.656;2023-02-01T13:22:42;24.15;;;6.82;;
44925;SDS011;30662;51.210;7.656;2023-02-01T13:25:13;21.63;;;6.30;;
44925;SDS011;30662;51.210;7.656;2023-02-01T13:27:42;17.80;;;7.05;;
44925;SDS011;30662;51.210;7.656;2023-02-01T13:35:55;21.40;;;8.35;;
44925;SDS011;30662;51.210;7.656;2023-02-01T13:41:42;20.92;;;7.00;;
44925;SDS011;30662;51.210;7.656;2023-02-01T13:44:18;23.17;;;6.28;;
44925;SDS011;30662;51.210;7.656;2023-02-01T13:46:54;23.83;;;7.43;;
44925;SDS011;30662;51.210;7.656;2023-02-01T13:49:26;21.27;;;7.38;;
44925;SDS011;30662;51.210;7.656;2023-02-01T13:51:56;20.88;;;8.63;;
44925;SDS011;30662;51.210;7.656;2023-02-01T13:56:52;26.73;;;7.05;;
44925;SDS011;30662;51.210;7.656;2023-02-01T14:05:11;25.27;;;9.20;;
44925;SDS011;30662;51.210;7.656;2023-02-01T14:11:12;24.42;;;7.10;;
44925;SDS011;30662;51.210;7.656;2023-02-01T14:29:21;15.80;;;7.13;;
44925;SDS011;30662;51.210;7.656;2023-02-01T14:32:03;24.17;;;7.03;;
44925;SDS011;30662;51.210;7.656;2023-02-01T14:37:02;20.05;;;7.38;;
44925;SDS011;30662;51.210;7.656;2023-02-01T14:39:33;23.45;;;9.05;;
44925;SDS011;30662;51.210;7.656;2023-02-01T14:42:14;26.85;;;6.47;;
44925;SDS011;30662;51.210;7.656;2023-02-01T14:44:42;17.38;;;6.60;;
44925;SDS011;30662;51.210;7.656;2023-02-01T14:47:26;18.27;;;6.97;;
44925;SDS011;30662;51.210;7.656;2023-02-01T14:50:00;26.13;;;7.50;;
44925;SDS011;30662;51.210;7.656;2023-02-01T14:52:30;18.67;;;6.70;;
44925;SDS011;30662;51.210;7.656;2023-02-01T14:55:01;20.67;;;6.47;;
44925;SDS011;30662;51.210;7.656;2023-02-01T14:57:34;17.55;;;6.22;;
44925;SDS011;30662;51.210;7.656;2023-02-01T15:00:22;26.23;;;7.18;;
44925;SDS011;30662;51.210;7.656;2023-02-01T15:02:51;21.75;;;5.93;;
44925;SDS011;30662;51.210;7.656;2023-02-01T15:05:40;24.05;;;7.28;;
44925;SDS011;30662;51.210;7.656;2023-02-01T15:08:07;25.77;;;6.35;;
44925;SDS011;30662;51.210;7.656;2023-02-01T15:10:48;22.05;;;5.88;;
44925;SDS011;30662;51.210;7.656;2023-02-01T15:13:24;25.00;;;6.20;;
44925;SDS011;30662;51.210;7.656;2023-02-01T15:16:05;23.07;;;5.23;;
44925;SDS011;30662;51.210;7.656;2023-02-01T15:18:36;26.05;;;6.47;;
44925;SDS011;30662;51.210;7.656;2023-02-01T15:21:03;17.70;;;4.82;;
44925;SDS011;30662;51.210;7.656;2023-02-01T15:23:51;19.05;;;4.45;;
44925;SDS011;30662;51.210;7.656;2023-02-01T15:26:35;17.02;;;4.15;;
44925;SDS011;30662;51.210;7.656;2023-02-01T15:29:01;18.90;;;4.35;;
44925;SDS011;30662;51.210;7.656;2023-02-01T15:31:47;18.70;;;5.22;;
44925;SDS011;30662;51.210;7.656;2023-02-01T15:34:17;14.95;;;4.47;;
44925;SDS011;30662;51.210;7.656;2023-02-01T15:36:45;17.77;;;5.20;;
44925;SDS011;30662;51.210;7.656;2023-02-01T15:39:27;18.27;;;4.70;;
44925;SDS011;30662;51.210;7.656;2023-02-01T15:41:56;20.02;;;5.25;;
44925;SDS011;30662;51.210;7.656;2023-02-01T15:47:17;20.83;;;5.35;;
44925;SDS011;30662;51.210;7.656;2023-02-01T15:49:46;19.77;;;5.32;;
44925;SDS011;30662;51.210;7.656;2023-02-01T15:52:34;13.77;;;4.13;;
44925;SDS011;30662;51.210;7.656;2023-02-01T15:55:05;21.02;;;4.90;;
44925;SDS011;30662;51.210;7.656;2023-02-01T15:57:35;22.45;;;5.25;;
44925;SDS011;30662;51.210;7.656;2023-02-01T16:00:06;19.73;;;5.47;;
44925;SDS011;30662;51.210;7.656;2023-02-01T16:02:54;32.72;;;5.00;;
44925;SDS011;30662;51.210;7.656;2023-02-01T16:05:34;20.73;;;5.03;;
44925;SDS011;30662;51.210;7.656;2023-02-01T16:08:05;19.45;;;5.18;;
44925;SDS011;30662;51.210;7.656;2023-02-01T16:10:40;16.23;;;4.20;;
44925;SDS011;30662;51.210;7.656;2023-02-01T16:13:08;15.00;;;4.25;;
44925;SDS011;30662;51.210;7.656;2023-02-01T16:15:35;21.35;;;5.43;;
44925;SDS011;30662;51.210;7.656;2023-02-01T16:18:01;13.57;;;3.78;;
44925;SDS011;30662;51.210;7.656;2023-02-01T16:20:27;19.70;;;4.55;;
44925;SDS011;30662;51.210;7.656;2023-02-01T16:22:53;27.00;;;5.60;;
44925;SDS011;30662;51.210;7.656;2023-02-01T16:25:19;18.40;;;4.68;;
44925;SDS011;30662;51.210;7.656;2023-02-01T16:27:45;17.17;;;4.88;;
44925;SDS011;30662;51.210;7.656;2023-02-01T16:30:11;27.98;;;5.97;;
44925;SDS011;30662;51.210;7.656;2023-02-01T16:32:37;20.60;;;4.55;;
44925;SDS011;30662;51.210;7.656;2023-02-01T16:35:05;21.73;;;4.57;;
44925;SDS011;30662;51.210;7.656;2023-02-01T16:37:39;21.58;;;5.20;;
44925;SDS011;30662;51.210;7.656;2023-02-01T16:40:05;22.30;;;5.28;;
44925;SDS011;30662;51.210;7.656;2023-02-01T16:42:37;19.15;;;4.30;;
44925;SDS011;30662;51.210;7.656;2023-02-01T16:45:04;19.02;;;4.65;;
44925;SDS011;30662;51.210;7.656;2023-02-01T16:47:30;22.55;;;5.20;;
44925;SDS011;30662;51.210;7.656;2023-02-01T16:49:56;12.90;;;4.13;;
44925;SDS011;30662;51.210;7.656;2023-02-01T16:52:23;21.02;;;5.00;;
44925;SDS011;30662;51.210;7.656;2023-02-01T16:54:50;19.08;;;5.63;;
44925;SDS011;30662;51.210;7.656;2023-02-01T16:57:17;19.88;;;6.05;;
44925;SDS011;30662;51.210;7.656;2023-02-01T16:59:45;21.52;;;5.32;;
44925;SDS011;30662;51.210;7.656;2023-02-01T17:02:13;19.90;;;4.85;;
44925;SDS011;30662;51.210;7.656;2023-02-01T17:04:40;23.45;;;5.68;;
44925;SDS011;30662;51.210;7.656;2023-02-01T17:07:15;20.30;;;5.43;;
44925;SDS011;30662;51.210;7.656;2023-02-01T17:09:44;22.60;;;5.88;;
44925;SDS011;30662;51.210;7.656;2023-02-01T17:12:30;28.88;;;6.20;;
44925;SDS011;30662;51.210;7.656;2023-02-01T17:14:57;27.05;;;5.68;;